sensor_id;sensor_type;location;lat;lon;timestamp;pressure;altitude;pressure_sealevel;temperature;humidity
46614;BME280;32338;50.430;6.806;2023-05-03T00:00:09;65695.66;;;2.53;100.00
46614;BME280;32338;50.430;6.806;2023-05-03T00:02:37;65687.28;;;2.46;100.00
46614;BME280;32338;50.430;6.806;2023-05-03T00:05:04;65679.25;;;2.36;100.00
46614;BME280;32338;50.430;6.806;2023-05-03T00:07:32;65666.56;;;2.26;100.00
46614;BME280;32338;50.430;6.806;2023-05-03T00:10:00;65657.84;;;2.21;100.00
46614;BME280;32338;50.430;6.806;2023-05-03T00:12:27;65653.72;;;2.15;100.00
46614;BME280;32338;50.430;6.806;2023-05-03T00:14:53;65654.06;;;2.13;100.00
46614;BME280;32338;50.430;6.806;2023-05-03T00:17:20;65660.56;;;2.16;100.00
46614;BME280;32338;50.430;6.806;2023-05-03T00:19:47;65664.69;;;2.22;100.00
46614;BME280;32338;50.430;6.806;2023-05-03T00:22:13;65652.59;;;2.14;100.00
46614;BME280;32338;50.430;6.806;2023-05-03T00:24:40;65644.56;;;2.04;100.00
46614;BME280;32338;50.430;6.806;2023-05-03T00:27:08;65640.31;;;2.02;100.00
46614;BME280;32338;50.430;6.806;2023-05-03T00:29:34;65641.63;;;2.06;100.00
46614;BME280;32338;50.430;6.806;2023-05-03T00:32:01;65647.94;;;2.07;100.00
46614;BME280;32338;50.430;6.806;2023-05-03T00:34:28;65651.44;;;2.05;100.00
46614;BME280;32338;50.430;6.806;2023-05-03T00:36:55;65648.47;;;2.07;100.00
46614;BME280;32338;50.430;6.806;2023-05-03T00:39:21;65642.88;;;2.02;100.00
46614;BME280;32338;50.430;6.806;2023-05-03T00:41:48;65640.09;;;2.00;100.00
46614;BME280;32338;50.430;6.806;2023-05-03T00:44:16;65633.19;;;1.91;100.00
46614;BME280;32338;50.430;6.806;2023-05-03T00:46:42;65630.25;;;1.93;100.00
46614;BME280;32338;50.430;6.806;2023-05-03T00:49:09;65631.34;;;1.94;100.00
46614;BME280;32338;50.430;6.806;2023-05-03T00:51:36;65630.59;;;1.91;100.00
46614;BME280;32338;50.430;6.806;2023-05-03T00:54:03;65630.59;;;1.91;100.00
46614;BME280;32338;50.430;6.806;2023-05-03T00:56:31;65627.78;;;1.88;100.00
46614;BME280;32338;50.430;6.806;2023-05-03T00:58:59;65620.75;;;1.84;100.00
46614;BME280;32338;50.430;6.806;2023-05-03T01:01:28;65620.19;;;1.84;100.00
46614;BME280;32338;50.430;6.806;2023-05-03T01:03:55;65616.63;;;1.78;100.00
46614;BME280;32338;50.430;6.806;2023-05-03T01:06:27;65606.22;;;1.71;100.00
46614;BME280;32338;50.430;6.806;2023-05-03T01:08:58;65597.03;;;1.60;100.00
46614;BME280;32338;50.430;6.806;2023-05-03T01:11:33;65593.69;;;1.57;100.00
46614;BME280;32338;50.430;6.806;2023-05-03T01:14:06;65603.00;;;1.63;100.00
46614;BME280;32338;50.430;6.806;2023-05-03T01:16:39;65598.16;;;1.61;100.00
46614;BME280;32338;50.430;6.806;2023-05-03T01:19:17;65593.69;;;1.57;100.00
46614;BME280;32338;50.430;6.806;2023-05-03T01:21:45;65599.09;;;1.59;100.00
46614;BME280;32338;50.430;6.806;2023-05-03T01:24:21;65598.31;;;1.56;100.00
46614;BME280;32338;50.430;6.806;2023-05-03T01:26:51;65587.22;;;1.53;100.00
46614;BME280;32338;50.430;6.806;2023-05-03T01:29:18;65584.75;;;1.49;100.00
46614;BME280;32338;50.430;6.806;2023-05-03T01:31:50;65578.81;;;1.45;100.00
46614;BME280;32338;50.430;6.806;2023-05-03T01:34:24;65582.09;;;1.41;100.00
46614;BME280;32338;50.430;6.806;2023-05-03T01:36:57;65571.13;;;1.34;100.00
46614;BME280;32338;50.430;6.806;2023-05-03T01:39:31;65559.25;;;1.27;100.00
46614;BME280;32338;50.430;6.806;2023-05-03T01:42:02;65562.63;;;1.31;100.00
46614;BME280;32338;50.430;6.806;2023-05-03T01:44:30;65569.66;;;1.35;100.00
46614;BME280;32338;50.430;6.806;2023-05-03T01:46:57;65566.88;;;1.32;100.00
46614;BME280;32338;50.430;6.806;2023-05-03T01:49:24;65562.25;;;1.33;100.00
46614;BME280;32338;50.430;6.806;2023-05-03T01:51:51;65572.25;;;1.35;100.00
46614;BME280;32338;50.430;6.806;2023-05-03T01:54:17;65574.13;;;1.39;100.00
46614;BME280;32338;50.430;6.806;2023-05-03T01:56:44;65576.94;;;1.41;100.00
46614;BME280;32338;50.430;6.806;2023-05-03T01:59:13;65562.53;;;1.23;100.00
46614;BME280;32338;50.430;6.806;2023-05-03T02:01:39;65536.16;;;1.04;100.00
46614;BME280;32338;50.430;6.806;2023-05-03T02:04:06;65521.63;;;0.90;100.00
46614;BME280;32338;50.430;6.806;2023-05-03T02:06:33;65510.25;;;0.77;100.00
46614;BME280;32338;50.430;6.806;2023-05-03T02:08:59;65504.31;;;0.74;100.00
46614;BME280;32338;50.430;6.806;2023-05-03T02:11:26;65517.72;;;0.87;100.00
46614;BME280;32338;50.430;6.806;2023-05-03T02:13:52;65536.50;;;1.02;100.00
46614;BME280;32338;50.430;6.806;2023-05-03T02:16:20;65537.06;;;1.02;100.00
46614;BME280;32338;50.430;6.806;2023-05-03T02:18:47;65545.63;;;1.12;100.00
46614;BME280;32338;50.430;6.806;2023-05-03T02:21:14;65550.81;;;1.12;100.00
46614;BME280;32338;50.430;6.806;2023-05-03T02:23:40;65541.19;;;1.08;100.00
46614;BME280;32338;50.430;6.806;2023-05-03T02:26:07;65544.53;;;1.11;100.00
46614;BME280;32338;50.430;6.806;2023-05-03T02:28:33;65544.31;;;1.09;100.00
46614;BME280;32338;50.430;6.806;2023-05-03T02:31:00;65531.69;;;1.00;100.00
46614;BME280;32338;50.430;6.806;2023-05-03T02:33:28;65519.94;;;0.89;100.00
46614;BME280;32338;50.430;6.806;2023-05-03T02:35:55;65513.44;;;0.85;100.00
46614;BME280;32338;50.430;6.806;2023-05-03T02:38:21;65518.97;;;0.83;100.00
46614;BME280;32338;50.430;6.806;2023-05-03T02:40:48;65521.28;;;0.92;100.00
46614;BME280;32338;50.430;6.806;2023-05-03T02:43:15;65527.97;;;0.99;100.00
46614;BME280;32338;50.430;6.806;2023-05-03T02:45:42;65526.31;;;0.97;100.00
46614;BME280;32338;50.430;6.806;2023-05-03T02:48:08;65519.81;;;0.93;100.00
46614;BME280;32338;50.430;6.806;2023-05-03T02:50:37;65522.19;;;0.91;100.00
46614;BME280;32338;50.430;6.806;2023-05-03T02:53:04;65513.44;;;0.85;100.00
46614;BME280;32338;50.430;6.806;2023-05-03T02:55:31;65504.88;;;0.75;100.00
46614;BME280;32338;50.430;6.806;2023-05-03T02:57:57;65502.06;;;0.72;100.00
46614;BME280;32338;50.430;6.806;2023-05-03T03:00:24;65499.63;;;0.68;100.00
46614;BME280;32338;50.430;6.806;2023-05-03T03:02:50;65488.34;;;0.62;100.00
46614;BME280;32338;50.430;6.806;2023-05-03T03:05:17;65489.44;;;0.63;100.00
46614;BME280;32338;50.430;6.806;2023-05-03T03:07:45;65491.47;;;0.62;100.00
46614;BME280;32338;50.430;6.806;2023-05-03T03:10:12;65497.03;;;0.68;100.00
46614;BME280;32338;50.430;6.806;2023-05-03T03:12:39;65501.66;;;0.67;100.00
46614;BME280;32338;50.430;6.806;2023-05-03T03:15:06;65499.41;;;0.65;100.00
46614;BME280;32338;50.430;6.806;2023-05-03T03:17:33;65498.53;;;0.67;100.00
46614;BME280;32338;50.430;6.806;2023-05-03T03:20:03;65499.06;;;0.67;100.00
46614;BME280;32338;50.430;6.806;2023-05-03T03:22:31;65490.00;;;0.63;100.00
46614;BME280;32338;50.430;6.806;2023-05-03T03:24:58;65490.13;;;0.59;100.00
46614;BME280;32338;50.430;6.806;2023-05-03T03:27:25;65487.00;;;0.58;100.00
46614;BME280;32338;50.430;6.806;2023-05-03T03:29:52;65486.25;;;0.55;100.00
46614;BME280;32338;50.430;6.806;2023-05-03T03:32:18;65475.84;;;0.48;100.00
46614;BME280;32338;50.430;6.806;2023-05-03T03:34:45;65480.31;;;0.52;100.00
46614;BME280;32338;50.430;6.806;2023-05-03T03:37:12;65470.81;;;0.43;100.00
46614;BME280;32338;50.430;6.806;2023-05-03T03:39:39;65463.41;;;0.41;100.00
46614;BME280;32338;50.430;6.806;2023-05-03T03:42:09;65471.16;;;0.41;100.00
46614;BME280;32338;50.430;6.806;2023-05-03T03:44:36;65457.78;;;0.29;100.00
46614;BME280;32338;50.430;6.806;2023-05-03T03:47:02;65445.91;;;0.23;100.00
46614;BME280;32338;50.430;6.806;2023-05-03T03:49:29;65451.28;;;0.25;100.00
46614;BME280;32338;50.430;6.806;2023-05-03T03:51:56;65448.13;;;0.25;100.00
46614;BME280;32338;50.430;6.806;2023-05-03T03:54:22;65452.41;;;0.26;100.00
46614;BME280;32338;50.430;6.806;2023-05-03T03:56:49;65446.47;;;0.23;100.00
46614;BME280;32338;50.430;6.806;2023-05-03T03:59:18;65444.59;;;0.19;100.00
46614;BME280;32338;50.430;6.806;2023-05-03T04:01:44;65452.75;;;0.24;100.00
46614;BME280;32338;50.430;6.806;2023-05-03T04:04:11;65449.81;;;0.26;100.00
46614;BME280;32338;50.430;6.806;2023-05-03T04:06:37;65443.13;;;0.20;100.00
46614;BME280;32338;50.430;6.806;2023-05-03T04:09:05;65446.03;;;0.18;100.00
46614;BME280;32338;50.430;6.806;2023-05-03T04:11:31;65447.72;;;0.20;100.00
46614;BME280;32338;50.430;6.806;2023-05-03T04:13:58;65445.34;;;0.22;100.00
46614;BME280;32338;50.430;6.806;2023-05-03T04:16:27;65453.50;;;0.27;100.00
46614;BME280;32338;50.430;6.806;2023-05-03T04:18:53;65458.88;;;0.30;100.00
46614;BME280;32338;50.430;6.806;2023-05-03T04:21:20;65446.81;;;0.21;100.00
46614;BME280;32338;50.430;6.806;2023-05-03T04:23:46;65445.13;;;0.20;100.00
46614;BME280;32338;50.430;6.806;2023-05-03T04:26:13;65450.72;;;0.25;100.00
46614;BME280;32338;50.430;6.806;2023-05-03T04:28:41;65451.63;;;0.23;100.00
46614;BME280;32338;50.430;6.806;2023-05-03T04:31:08;65449.59;;;0.24;100.00
46614;BME280;32338;50.430;6.806;2023-05-03T04:33:36;65445.34;;;0.22;100.00
46614;BME280;32338;50.430;6.806;2023-05-03T04:36:03;65450.72;;;0.25;100.00
46614;BME280;32338;50.430;6.806;2023-05-03T04:38:30;65456.84;;;0.30;100.00
46614;BME280;32338;50.430;6.806;2023-05-03T04:40:57;65459.06;;;0.32;100.00
46614;BME280;32338;50.430;6.806;2023-05-03T04:43:23;65457.41;;;0.31;100.00
46614;BME280;32338;50.430;6.806;2023-05-03T04:45:50;65449.25;;;0.26;100.00
46614;BME280;32338;50.430;6.806;2023-05-03T04:48:17;65457.97;;;0.31;100.00
46614;BME280;32338;50.430;6.806;2023-05-03T04:50:45;65465.03;;;0.36;100.00
46614;BME280;32338;50.430;6.806;2023-05-03T04:53:11;65469.00;;;0.46;100.00
46614;BME280;32338;50.430;6.806;2023-05-03T04:55:39;65474.59;;;0.52;100.00
46614;BME280;32338;50.430;6.806;2023-05-03T04:58:05;65491.63;;;0.58;100.00
46614;BME280;32338;50.430;6.806;2023-05-03T05:00:32;65489.25;;;0.60;100.00
46614;BME280;32338;50.430;6.806;2023-05-03T05:02:58;65506.53;;;0.76;100.00
46614;BME280;32338;50.430;6.806;2023-05-03T05:05:25;65521.28;;;0.92;100.00
46614;BME280;32338;50.430;6.806;2023-05-03T05:07:53;65552.91;;;1.19;100.00
46614;BME280;32338;50.430;6.806;2023-05-03T05:10:20;65571.00;;;1.38;100.00
46614;BME280;32338;50.430;6.806;2023-05-03T05:12:46;65568.41;;;1.38;100.00
46614;BME280;32338;50.430;6.806;2023-05-03T05:15:13;65599.09;;;1.59;100.00
46614;BME280;32338;50.430;6.806;2023-05-03T05:17:40;65647.94;;;2.07;100.00
46614;BME280;32338;50.430;6.806;2023-05-03T05:20:07;65645.34;;;2.07;100.00
46614;BME280;32338;50.430;6.806;2023-05-03T05:22:36;65662.09;;;2.22;100.00
46614;BME280;32338;50.430;6.806;2023-05-03T05:25:05;65676.44;;;2.33;100.00
46614;BME280;32338;50.430;6.806;2023-05-03T05:27:32;65687.63;;;2.43;100.00
46614;BME280;32338;50.430;6.806;2023-05-03T05:30:00;65683.72;;;2.40;100.00
46614;BME280;32338;50.430;6.806;2023-05-03T05:32:27;65673.09;;;2.30;100.00
46614;BME280;32338;50.430;6.806;2023-05-03T05:34:53;65673.44;;;2.28;100.00
46614;BME280;32338;50.430;6.806;2023-05-03T05:37:20;65633.81;;;1.99;100.00
46614;BME280;32338;50.430;6.806;2023-05-03T05:39:47;65646.03;;;2.03;100.00
46614;BME280;32338;50.430;6.806;2023-05-03T05:42:15;65657.97;;;2.16;100.00
46614;BME280;32338;50.430;6.806;2023-05-03T05:44:42;65717.06;;;2.68;100.00
46614;BME280;32338;50.430;6.806;2023-05-03T05:47:09;65777.38;;;3.29;100.00
46614;BME280;32338;50.430;6.806;2023-05-03T05:49:36;65787.78;;;3.36;100.00
46614;BME280;32338;50.430;6.806;2023-05-03T05:52:03;65769.31;;;3.19;100.00
46614;BME280;32338;50.430;6.806;2023-05-03T05:54:30;65741.91;;;2.94;100.00
46614;BME280;32338;50.430;6.806;2023-05-03T05:56:56;65717.34;;;2.78;100.00
46614;BME280;32338;50.430;6.806;2023-05-03T05:59:24;65707.97;;;2.65;100.00
46614;BME280;32338;50.430;6.806;2023-05-03T06:01:51;65699.94;;;2.55;100.00
46614;BME280;32338;50.430;6.806;2023-05-03T06:04:17;65691.75;;;2.50;100.00
46614;BME280;32338;50.430;6.806;2023-05-03T06:06:44;65692.09;;;2.48;100.00
46614;BME280;32338;50.430;6.806;2023-05-03T06:09:10;65692.66;;;2.48;100.00
46614;BME280;32338;50.430;6.806;2023-05-03T06:11:38;65691.19;;;2.49;100.00
46614;BME280;32338;50.430;6.806;2023-05-03T06:14:07;65693.78;;;2.49;100.00
46614;BME280;32338;50.430;6.806;2023-05-03T06:16:35;65695.66;;;2.53;100.00
46614;BME280;32338;50.430;6.806;2023-05-03T06:19:02;65699.03;;;2.56;100.00
46614;BME280;32338;50.430;6.806;2023-05-03T06:21:29;65700.13;;;2.57;100.00
46614;BME280;32338;50.430;6.806;2023-05-03T06:23:55;65710.56;;;2.65;100.00
46614;BME280;32338;50.430;6.806;2023-05-03T06:26:22;65711.31;;;2.68;100.00
46614;BME280;32338;50.430;6.806;2023-05-03T06:28:49;65729.38;;;2.80;100.00
46614;BME280;32338;50.430;6.806;2023-05-03T06:31:16;65728.13;;;2.83;100.00
46614;BME280;32338;50.430;6.806;2023-05-03T06:33:44;65743.56;;;2.95;100.00
46614;BME280;32338;50.430;6.806;2023-05-03T06:36:11;65755.88;;;3.06;100.00
46614;BME280;32338;50.430;6.806;2023-05-03T06:38:38;65759.25;;;3.10;100.00
46614;BME280;32338;50.430;6.806;2023-05-03T06:41:05;65767.66;;;3.17;100.00
46614;BME280;32338;50.430;6.806;2023-05-03T06:43:31;65777.16;;;3.26;100.00
46614;BME280;32338;50.430;6.806;2023-05-03T06:45:58;65783.31;;;3.32;100.00
46614;BME280;32338;50.430;6.806;2023-05-03T06:48:24;65803.81;;;3.48;100.00
46614;BME280;32338;50.430;6.806;2023-05-03T06:50:53;65812.44;;;3.59;100.00
46614;BME280;32338;50.430;6.806;2023-05-03T06:53:19;65822.28;;;3.65;100.00
46614;BME280;32338;50.430;6.806;2023-05-03T06:55:46;65834.06;;;3.76;100.00
46614;BME280;32338;50.430;6.806;2023-05-03T06:58:12;65850.50;;;3.94;100.00
46614;BME280;32338;50.430;6.806;2023-05-03T07:00:40;65863.97;;;4.06;100.00
46614;BME280;32338;50.430;6.806;2023-05-03T07:03:07;65878.53;;;4.19;100.00
46614;BME280;32338;50.430;6.806;2023-05-03T07:05:34;65888.59;;;4.29;100.00
46614;BME280;32338;50.430;6.806;2023-05-03T07:08:02;65906.03;;;4.52;100.00
46614;BME280;32338;50.430;6.806;2023-05-03T07:10:29;65915.13;;;4.55;100.00
46614;BME280;32338;50.430;6.806;2023-05-03T07:12:55;65925.25;;;4.65;100.00
46614;BME280;32338;50.430;6.806;2023-05-03T07:15:22;65937.00;;;4.76;100.00
46614;BME280;32338;50.430;6.806;2023-05-03T07:17:49;65952.50;;;4.87;100.00
46614;BME280;32338;50.430;6.806;2023-05-03T07:20:15;65966.50;;;5.00;100.00
46614;BME280;32338;50.430;6.806;2023-05-03T07:22:42;65974.91;;;5.08;100.00
46614;BME280;32338;50.430;6.806;2023-05-03T07:25:10;65986.34;;;5.21;100.00
46614;BME280;32338;50.430;6.806;2023-05-03T07:27:38;65989.69;;;5.24;100.00
46614;BME280;32338;50.430;6.806;2023-05-03T07:30:06;65999.59;;;5.31;100.00
46614;BME280;32338;50.430;6.806;2023-05-03T07:32:33;66011.56;;;5.44;100.00
46614;BME280;32338;50.430;6.806;2023-05-03T07:34:59;66014.03;;;5.49;100.00
46614;BME280;32338;50.430;6.806;2023-05-03T07:37:26;66037.38;;;5.68;100.00
46614;BME280;32338;50.430;6.806;2023-05-03T07:39:53;66038.84;;;5.67;100.00
46614;BME280;32338;50.430;6.806;2023-05-03T07:42:21;66048.75;;;5.74;100.00
46614;BME280;32338;50.430;6.806;2023-05-03T07:44:47;66051.97;;;5.81;100.00
46614;BME280;32338;50.430;6.806;2023-05-03T07:47:14;66059.25;;;5.88;100.00
46614;BME280;32338;50.430;6.806;2023-05-03T07:49:40;66075.72;;;5.98;100.00
46614;BME280;32338;50.430;6.806;2023-05-03T07:52:07;66097.81;;;6.21;100.00
46614;BME280;32338;50.430;6.806;2023-05-03T07:54:34;66112.97;;;6.35;100.00
46614;BME280;32338;50.430;6.806;2023-05-03T07:57:00;66107.75;;;6.35;100.00
46614;BME280;32338;50.430;6.806;2023-05-03T07:59:29;66129.44;;;6.53;100.00
46614;BME280;32338;50.430;6.806;2023-05-03T08:01:57;66143.06;;;6.60;100.00
46614;BME280;32338;50.430;6.806;2023-05-03T08:04:23;66149.88;;;6.74;100.00
46614;BME280;32338;50.430;6.806;2023-05-03T08:06:50;66159.34;;;6.75;100.00
46614;BME280;32338;50.430;6.806;2023-05-03T08:09:16;66164.63;;;6.82;100.00
46614;BME280;32338;50.430;6.806;2023-05-03T08:11:43;66167.97;;;6.86;100.00
46614;BME280;32338;50.430;6.806;2023-05-03T08:14:10;66167.97;;;6.86;100.00
46614;BME280;32338;50.430;6.806;2023-05-03T08:16:38;66167.25;;;6.90;100.00
46614;BME280;32338;50.430;6.806;2023-05-03T08:19:05;66175.69;;;6.97;100.00
46614;BME280;32338;50.430;6.806;2023-05-03T08:21:32;66184.06;;;6.98;100.00
46614;BME280;32338;50.430;6.806;2023-05-03T08:23:59;66193.81;;;7.09;100.00
46614;BME280;32338;50.430;6.806;2023-05-03T08:26:27;66203.56;;;7.21;100.00
46614;BME280;32338;50.430;6.806;2023-05-03T08:28:54;66197.59;;;7.18;100.00
46614;BME280;32338;50.430;6.806;2023-05-03T08:31:20;66206.19;;;7.21;100.00
46614;BME280;32338;50.430;6.806;2023-05-03T08:33:48;66229.94;;;7.38;100.00
46614;BME280;32338;50.430;6.806;2023-05-03T08:36:15;66252.81;;;7.63;100.00
46614;BME280;32338;50.430;6.806;2023-05-03T08:38:42;66251.31;;;7.65;100.00
46614;BME280;32338;50.430;6.806;2023-05-03T08:41:18;66262.56;;;7.75;100.00
46614;BME280;32338;50.430;6.806;2023-05-03T08:43:51;66285.41;;;7.93;100.00
46614;BME280;32338;50.430;6.806;2023-05-03T08:46:18;66293.09;;;7.98;100.00
46614;BME280;32338;50.430;6.806;2023-05-03T08:48:46;66304.53;;;8.11;100.00
46614;BME280;32338;50.430;6.806;2023-05-03T08:51:15;66316.91;;;8.22;100.00
46614;BME280;32338;50.430;6.806;2023-05-03T08:53:42;66309.94;;;8.14;100.00
46614;BME280;32338;50.430;6.806;2023-05-03T08:56:09;66312.03;;;8.20;100.00
46614;BME280;32338;50.430;6.806;2023-05-03T08:58:37;66321.03;;;8.28;100.00
46614;BME280;32338;50.430;6.806;2023-05-03T09:01:04;66329.06;;;8.31;100.00
46614;BME280;32338;50.430;6.806;2023-05-03T09:03:31;66331.16;;;8.38;100.00
46614;BME280;32338;50.430;6.806;2023-05-03T09:05:57;66333.97;;;8.40;100.00
46614;BME280;32338;50.430;6.806;2023-05-03T09:08:28;66345.78;;;8.51;100.00
46614;BME280;32338;50.430;6.806;2023-05-03T09:10:55;66359.09;;;8.61;100.00
46614;BME280;32338;50.430;6.806;2023-05-03T09:13:28;66368.50;;;8.74;100.00
46614;BME280;32338;50.430;6.806;2023-05-03T09:15:56;66380.69;;;8.83;100.00
46614;BME280;32338;50.430;6.806;2023-05-03T09:18:23;66395.13;;;8.94;100.00
46614;BME280;32338;50.430;6.806;2023-05-03T09:20:51;66399.63;;;8.98;97.90
46614;BME280;32338;50.430;6.806;2023-05-03T09:23:27;66414.81;;;9.12;100.00
46614;BME280;32338;50.430;6.806;2023-05-03T09:25:57;66413.50;;;9.16;100.00
46614;BME280;32338;50.430;6.806;2023-05-03T09:28:24;66446.13;;;9.38;100.00
46614;BME280;32338;50.430;6.806;2023-05-03T09:31:03;66454.97;;;9.51;100.00
46614;BME280;32338;50.430;6.806;2023-05-03T09:33:30;66459.09;;;9.57;100.00
46614;BME280;32338;50.430;6.806;2023-05-03T09:35:58;66456.47;;;9.50;99.12
46614;BME280;32338;50.430;6.806;2023-05-03T09:38:26;66457.94;;;9.49;100.00
46614;BME280;32338;50.430;6.806;2023-05-03T09:40:53;66459.09;;;9.57;100.00
46614;BME280;32338;50.430;6.806;2023-05-03T09:43:21;66472.41;;;9.67;100.00
46614;BME280;32338;50.430;6.806;2023-05-03T09:45:47;66486.09;;;9.75;100.00
46614;BME280;32338;50.430;6.806;2023-05-03T09:48:14;66508.81;;;9.98;100.00
46614;BME280;32338;50.430;6.806;2023-05-03T09:50:42;66516.13;;;10.05;100.00
46614;BME280;32338;50.430;6.806;2023-05-03T09:53:08;66520.06;;;10.09;94.10
46614;BME280;32338;50.430;6.806;2023-05-03T09:55:36;66509.56;;;10.01;100.00
46614;BME280;32338;50.430;6.806;2023-05-03T09:58:04;66525.16;;;10.13;100.00
46614;BME280;32338;50.430;6.806;2023-05-03T10:00:37;66533.25;;;10.23;100.00
46614;BME280;32338;50.430;6.806;2023-05-03T10:03:07;66542.03;;;10.29;100.00
46614;BME280;32338;50.430;6.806;2023-05-03T10:05:40;66548.84;;;10.42;100.00
46614;BME280;32338;50.430;6.806;2023-05-03T10:08:09;66562.38;;;10.54;100.00
46614;BME280;32338;50.430;6.806;2023-05-03T10:10:38;66573.81;;;10.60;100.00
46614;BME280;32338;50.430;6.806;2023-05-03T10:13:07;66571.19;;;10.53;100.00
46614;BME280;32338;50.430;6.806;2023-05-03T10:15:36;66571.56;;;10.58;97.35
46614;BME280;32338;50.430;6.806;2023-05-03T10:18:07;66586.78;;;10.72;100.00
46614;BME280;32338;50.430;6.806;2023-05-03T10:20:38;66598.97;;;10.81;91.43
46614;BME280;32338;50.430;6.806;2023-05-03T10:23:10;66589.41;;;10.72;100.00
46614;BME280;32338;50.430;6.806;2023-05-03T10:25:38;66597.84;;;10.80;90.92
46614;BME280;32338;50.430;6.806;2023-05-03T10:28:05;66595.22;;;10.80;94.08
46614;BME280;32338;50.430;6.806;2023-05-03T10:30:33;66614.22;;;11.02;100.00
46614;BME280;32338;50.430;6.806;2023-05-03T10:33:27;66640.31;;;11.21;96.19
46614;BME280;32338;50.430;6.806;2023-05-03T10:35:55;66645.03;;;11.28;100.00
46614;BME280;32338;50.430;6.806;2023-05-03T10:38:24;66641.25;;;11.19;80.61
46614;BME280;32338;50.430;6.806;2023-05-03T10:40:51;66653.66;;;11.31;99.81
46614;BME280;32338;50.430;6.806;2023-05-03T10:43:41;66664.00;;;11.43;100.00
46614;BME280;32338;50.430;6.806;2023-05-03T10:46:08;66659.69;;;11.41;80.01
46614;BME280;32338;50.430;6.806;2023-05-03T10:49:17;66686.56;;;11.63;100.00
46614;BME280;32338;50.430;6.806;2023-05-03T10:51:44;66706.28;;;11.81;93.32
46614;BME280;32338;50.430;6.806;2023-05-03T10:54:11;66686.56;;;11.63;73.66
46614;BME280;32338;50.430;6.806;2023-05-03T10:56:47;66685.44;;;11.62;100.00
46614;BME280;32338;50.430;6.806;2023-05-03T10:59:13;66678.84;;;11.59;81.78
46614;BME280;32338;50.430;6.806;2023-05-03T11:01:41;66711.94;;;11.87;90.82
46614;BME280;32338;50.430;6.806;2023-05-03T11:04:12;66718.16;;;11.92;88.37
46614;BME280;32338;50.430;6.806;2023-05-03T11:06:42;66733.75;;;12.04;91.58
46614;BME280;32338;50.430;6.806;2023-05-03T11:09:10;66735.84;;;12.11;85.12
46614;BME280;32338;50.430;6.806;2023-05-03T11:11:39;66756.91;;;12.25;73.79
46614;BME280;32338;50.430;6.806;2023-05-03T11:14:08;66774.41;;;12.41;84.34
46614;BME280;32338;50.430;6.806;2023-05-03T11:16:36;66798.28;;;12.65;93.40
46614;BME280;32338;50.430;6.806;2023-05-03T11:19:05;66787.19;;;12.58;73.36
46614;BME280;32338;50.430;6.806;2023-05-03T11:21:31;66809.19;;;12.78;85.07
46614;BME280;32338;50.430;6.806;2023-05-03T11:24:00;66789.25;;;12.57;70.01
46614;BME280;32338;50.430;6.806;2023-05-03T11:26:27;66813.34;;;12.77;80.58
46614;BME280;32338;50.430;6.806;2023-05-03T11:28:53;66834.97;;;12.99;78.31
46614;BME280;32338;50.430;6.806;2023-05-03T11:31:20;66839.50;;;13.03;79.46
46614;BME280;32338;50.430;6.806;2023-05-03T11:33:48;66857.19;;;13.22;79.20
46614;BME280;32338;50.430;6.806;2023-05-03T11:36:14;66857.19;;;13.22;73.81
46614;BME280;32338;50.430;6.806;2023-05-03T11:38:41;66876.81;;;13.37;81.67
46614;BME280;32338;50.430;6.806;2023-05-03T11:41:13;66889.78;;;13.49;77.01
46614;BME280;32338;50.430;6.806;2023-05-03T11:43:41;66913.88;;;13.69;82.58
46614;BME280;32338;50.430;6.806;2023-05-03T11:46:08;66903.16;;;13.59;74.27
46614;BME280;32338;50.430;6.806;2023-05-03T11:48:35;66930.66;;;13.89;80.18
46614;BME280;32338;50.430;6.806;2023-05-03T11:51:06;66883.19;;;13.45;56.75
46614;BME280;32338;50.430;6.806;2023-05-03T11:53:36;66914.25;;;13.74;85.33
46614;BME280;32338;50.430;6.806;2023-05-03T11:56:06;66926.13;;;13.85;76.47
46614;BME280;32338;50.430;6.806;2023-05-03T11:58:34;66885.63;;;13.43;66.23
46614;BME280;32338;50.430;6.806;2023-05-03T12:01:01;66907.66;;;13.63;73.10
46614;BME280;32338;50.430;6.806;2023-05-03T12:03:28;66926.13;;;13.85;68.64
46614;BME280;32338;50.430;6.806;2023-05-03T12:05:57;66962.09;;;14.15;67.18
46614;BME280;32338;50.430;6.806;2023-05-03T12:08:27;66947.41;;;14.02;59.63
46614;BME280;32338;50.430;6.806;2023-05-03T12:10:54;66957.41;;;14.08;58.88
46614;BME280;32338;50.430;6.806;2023-05-03T12:13:27;66954.56;;;14.13;64.75
46614;BME280;32338;50.430;6.806;2023-05-03T12:15:57;66933.47;;;13.91;59.67
46614;BME280;32338;50.430;6.806;2023-05-03T12:18:25;66956.47;;;14.10;60.84
46614;BME280;32338;50.430;6.806;2023-05-03T12:20:56;67022.25;;;14.72;74.12
46614;BME280;32338;50.430;6.806;2023-05-03T12:23:24;67043.34;;;14.94;80.03
46614;BME280;32338;50.430;6.806;2023-05-03T12:25:51;67076.69;;;15.24;68.12
46614;BME280;32338;50.430;6.806;2023-05-03T12:28:18;67085.38;;;15.28;62.19
46614;BME280;32338;50.430;6.806;2023-05-03T12:30:45;67121.41;;;15.65;57.58
46614;BME280;32338;50.430;6.806;2023-05-03T12:33:13;67123.84;;;15.70;54.44
46614;BME280;32338;50.430;6.806;2023-05-03T12:35:42;67122.16;;;15.61;51.58
46614;BME280;32338;50.430;6.806;2023-05-03T12:38:09;67118.94;;;15.61;55.28
46614;BME280;32338;50.430;6.806;2023-05-03T12:40:35;67134.81;;;15.75;58.29
46614;BME280;32338;50.430;6.806;2023-05-03T12:43:03;67140.28;;;15.78;58.09
46614;BME280;32338;50.430;6.806;2023-05-03T12:45:29;67163.31;;;15.96;59.96
46614;BME280;32338;50.430;6.806;2023-05-03T12:47:56;67158.59;;;15.97;56.29
46614;BME280;32338;50.430;6.806;2023-05-03T12:50:24;67138.00;;;15.76;55.56
46614;BME280;32338;50.430;6.806;2023-05-03T12:52:50;67155.19;;;15.94;52.56
46614;BME280;32338;50.430;6.806;2023-05-03T12:55:17;67222.75;;;16.50;53.24
46614;BME280;32338;50.430;6.806;2023-05-03T12:57:44;67217.06;;;16.52;60.64
46614;BME280;32338;50.430;6.806;2023-05-03T13:00:12;67224.63;;;16.54;64.46
46614;BME280;32338;50.430;6.806;2023-05-03T13:02:38;67229.16;;;16.59;60.50